Time;durP1;ratioP1;P1;durP2;ratioP2;P2;SDS_P1;SDS_P2;PMS_P1;PMS_P2;Temp;Humidity;BMP_temperature;BMP_pressure;BME280_temperature;BME280_humidity;BME280_pressure;Samples;Min_cycle;Max_cycle;Signal;HPM_P1;HPM_P2
2023/09/06 00:01:12;;;;;;;4.50;3.28;;;17.10;99.90;;;;;;5027116;28;20084;-57
2023/09/06 00:03:37;;;;;;;3.72;2.97;;;17.10;99.90;;;;;;5030612;28;20034;-56
2023/09/06 00:06:04;;;;;;;3.22;2.65;;;17.10;99.90;;;;;;5028911;28;20076;-56
2023/09/06 00:08:34;;;;;;;4.63;2.95;;;17.00;99.90;;;;;;5023170;28;20528;-57
2023/09/06 00:11:06;;;;;;;5.20;3.33;;;17.00;99.90;;;;;;5030470;28;20025;-56
2023/09/06 00:13:33;;;;;;;4.18;2.88;;;17.00;99.90;;;;;;5027985;28;20109;-56
2023/09/06 00:16:00;;;;;;;3.45;3.10;;;17.10;99.90;;;;;;5045801;28;20479;-56
2023/09/06 00:18:27;;;;;;;4.93;3.40;;;17.10;99.90;;;;;;5027248;28;20037;-56
2023/09/06 00:20:53;;;;;;;4.35;3.05;;;16.90;99.90;;;;;;5021503;28;20030;-56
2023/09/06 00:23:20;;;;;;;4.22;3.25;;;17.00;99.90;;;;;;5028753;28;20032;-57
2023/09/06 00:25:46;;;;;;;4.70;3.22;;;17.10;99.90;;;;;;5046577;28;20120;-56
2023/09/06 00:28:15;;;;;;;3.67;2.90;;;17.00;99.90;;;;;;5030192;28;20033;-56
2023/09/06 00:30:44;;;;;;;5.93;3.20;;;16.90;99.90;;;;;;5041962;28;20025;-56
2023/09/06 00:33:10;;;;;;;5.15;3.17;;;16.80;99.90;;;;;;5046582;28;20033;-56
2023/09/06 00:35:37;;;;;;;4.82;3.40;;;16.80;99.90;;;;;;5027160;28;20022;-56
2023/09/06 00:38:04;;;;;;;5.13;3.30;;;16.80;99.90;;;;;;5026632;28;20044;-56
2023/09/06 00:40:30;;;;;;;4.43;2.90;;;16.80;99.90;;;;;;5027747;28;20030;-56
2023/09/06 00:42:59;;;;;;;3.60;3.30;;;16.80;99.90;;;;;;5027891;28;20050;-56
2023/09/06 00:45:28;;;;;;;5.35;3.15;;;16.80;99.90;;;;;;5030006;28;20030;-56
2023/09/06 00:47:55;;;;;;;4.93;3.22;;;16.80;99.90;;;;;;5031658;28;20065;-56
2023/09/06 00:50:21;;;;;;;3.58;2.88;;;16.70;99.90;;;;;;5029258;28;20029;-56
2023/09/06 00:52:50;;;;;;;2.83;2.53;;;16.70;99.90;;;;;;5023549;28;20105;-56
2023/09/06 00:55:16;;;;;;;4.03;3.10;;;16.60;99.90;;;;;;5026222;28;20105;-56
2023/09/06 00:57:42;;;;;;;3.10;2.70;;;16.50;99.90;;;;;;5029052;28;20089;-56
2023/09/06 01:00:14;;;;;;;4.90;2.67;;;16.50;99.90;;;;;;5040211;28;20030;-56
2023/09/06 01:02:40;;;;;;;5.50;3.60;;;16.50;99.90;;;;;;5023506;28;20056;-56
2023/09/06 01:05:06;;;;;;;5.72;3.17;;;16.50;99.90;;;;;;5026049;28;20471;-56
2023/09/06 01:07:34;;;;;;;6.53;3.33;;;16.60;99.90;;;;;;5030661;28;20032;-56
2023/09/06 01:10:01;;;;;;;6.63;3.17;;;16.60;99.90;;;;;;5042805;28;20025;-56
2023/09/06 01:12:28;;;;;;;4.00;3.10;;;16.50;99.90;;;;;;5019696;28;20041;-56
2023/09/06 01:14:53;;;;;;;4.07;3.20;;;16.40;99.90;;;;;;5029076;28;20017;-56
2023/09/06 01:20:52;;;;;;;4.13;2.90;;;16.30;99.90;;;;;;5001210;28;20459;-56
2023/09/06 01:23:40;;;;;;;3.25;2.88;;;16.20;99.90;;;;;;5029839;28;20018;-56
2023/09/06 01:26:05;;;;;;;3.92;3.15;;;16.10;99.90;;;;;;5023592;28;20466;-56
2023/09/06 01:28:32;;;;;;;4.55;2.88;;;16.10;99.90;;;;;;5028430;28;20277;-56
2023/09/06 01:31:01;;;;;;;4.95;3.42;;;16.00;99.90;;;;;;5026693;28;20018;-56
2023/09/06 01:33:28;;;;;;;4.15;3.10;;;16.00;99.90;;;;;;5028509;28;20067;-56
2023/09/06 01:35:54;;;;;;;5.18;3.03;;;15.90;99.90;;;;;;5024962;28;20026;-56
2023/09/06 01:38:20;;;;;;;6.13;3.20;;;15.90;99.90;;;;;;5028660;28;20040;-56
2023/09/06 01:40:46;;;;;;;4.47;3.67;;;15.90;99.90;;;;;;5026791;28;20029;-56
2023/09/06 01:43:12;;;;;;;3.63;3.15;;;15.80;99.90;;;;;;5028245;28;20312;-56
2023/09/06 01:45:43;;;;;;;3.83;3.35;;;15.90;99.90;;;;;;5023440;28;20117;-56
2023/09/06 01:48:08;;;;;;;6.13;3.80;;;15.80;99.90;;;;;;5028196;28;20174;-56
2023/09/06 01:50:34;;;;;;;6.03;4.07;;;15.80;99.90;;;;;;5026843;28;20391;-56
2023/09/06 01:53:00;;;;;;;4.75;3.88;;;15.80;99.90;;;;;;5023147;28;20225;-56
2023/09/06 01:55:25;;;;;;;5.88;3.58;;;15.80;99.90;;;;;;5028308;28;20017;-56
2023/09/06 01:57:51;;;;;;;7.57;4.25;;;15.80;99.90;;;;;;5027441;28;20025;-56
2023/09/06 02:02:46;;;;;;;5.72;3.83;;;15.80;99.90;;;;;;5024722;28;20030;-56
2023/09/06 02:05:12;;;;;;;4.47;3.55;;;15.70;99.90;;;;;;5027243;28;20122;-56
2023/09/06 02:07:37;;;;;;;5.20;3.95;;;15.80;99.90;;;;;;5020766;28;20068;-56
2023/09/06 02:10:07;;;;;;;5.35;3.80;;;15.80;99.90;;;;;;5011665;28;20033;-56
2023/09/06 02:12:33;;;;;;;4.10;3.23;;;15.70;99.90;;;;;;5029898;28;20014;-56
2023/09/06 02:14:59;;;;;;;5.50;3.80;;;15.80;99.90;;;;;;5029357;28;20813;-56
2023/09/06 02:17:24;;;;;;;6.00;3.60;;;15.80;99.90;;;;;;5030245;28;20114;-55
2023/09/06 02:19:50;;;;;;;8.35;3.50;;;15.70;99.90;;;;;;5028952;28;20390;-55
2023/09/06 02:22:16;;;;;;;4.75;3.60;;;15.70;99.90;;;;;;5030498;28;20033;-56
2023/09/06 02:24:41;;;;;;;3.50;3.10;;;15.60;99.90;;;;;;5028973;28;20029;-56
2023/09/06 02:27:10;;;;;;;11.05;3.70;;;15.60;99.90;;;;;;5030237;28;20116;-56
2023/09/06 02:29:35;;;;;;;5.32;3.95;;;15.50;99.90;;;;;;5044946;28;20079;-56
2023/09/06 02:32:01;;;;;;;4.72;4.00;;;15.70;99.90;;;;;;5029235;28;20029;-56
2023/09/06 02:34:26;;;;;;;6.53;3.88;;;15.60;99.90;;;;;;5030202;28;20721;-56
2023/09/06 02:36:52;;;;;;;5.38;3.83;;;15.60;99.90;;;;;;5022753;28;20029;-56
2023/09/06 02:39:18;;;;;;;5.00;4.13;;;15.70;99.90;;;;;;5009716;28;20514;-56
2023/09/06 02:41:43;;;;;;;5.38;3.83;;;15.70;99.90;;;;;;5010256;28;20021;-56
2023/09/06 02:44:09;;;;;;;7.68;3.85;;;15.70;99.90;;;;;;5010177;28;20030;-56
2023/09/06 02:46:34;;;;;;;6.60;3.97;;;15.60;99.90;;;;;;5013522;28;20029;-56
2023/09/06 02:49:11;;;;;;;3.83;3.38;;;15.60;99.90;;;;;;5029465;28;20071;-56
2023/09/06 02:51:43;;;;;;;6.15;3.95;;;15.50;99.90;;;;;;5029312;28;20025;-56
2023/09/06 02:54:09;;;;;;;6.35;4.05;;;15.40;99.90;;;;;;5045176;28;20017;-57
2023/09/06 02:56:38;;;;;;;5.15;3.88;;;15.40;99.90;;;;;;5045167;28;20021;-56
2023/09/06 02:59:07;;;;;;;9.13;3.60;;;15.30;99.90;;;;;;5028973;28;20577;-56
2023/09/06 03:01:35;;;;;;;4.30;3.90;;;15.30;99.90;;;;;;5029653;28;20491;-56
2023/09/06 03:04:06;;;;;;;5.15;3.53;;;15.20;99.90;;;;;;5020306;28;20606;-56
2023/09/06 03:06:33;;;;;;;8.30;4.18;;;15.20;99.90;;;;;;5008769;28;20033;-56
2023/09/06 03:08:59;;;;;;;5.25;3.70;;;15.20;99.90;;;;;;5009567;28;20054;-56
2023/09/06 03:11:25;;;;;;;4.82;3.95;;;15.10;99.90;;;;;;5009859;28;20446;-56
2023/09/06 03:13:55;;;;;;;5.13;3.45;;;15.10;99.90;;;;;;5009964;28;20443;-56
2023/09/06 03:16:22;;;;;;;5.68;4.07;;;15.00;99.90;;;;;;5009815;28;20022;-56
2023/09/06 03:18:52;;;;;;;8.18;4.05;;;15.00;99.90;;;;;;5009406;28;20034;-56
2023/09/06 03:21:18;;;;;;;;;;;15.00;99.90;;;;;;5010804;28;20152;-56
2023/09/06 03:23:45;;;;;;;5.20;3.58;;;15.00;99.90;;;;;;5009036;28;19996;-56
2023/09/06 03:26:11;;;;;;;5.05;3.47;;;15.00;99.90;;;;;;5010269;28;20109;-56
2023/09/06 03:28:42;;;;;;;4.93;4.25;;;15.00;99.90;;;;;;5029384;28;20167;-56
2023/09/06 03:31:09;;;;;;;4.82;3.90;;;15.00;99.90;;;;;;5028868;28;20029;-56
2023/09/06 03:33:35;;;;;;;5.00;4.00;;;15.00;99.90;;;;;;5025177;28;20679;-57
2023/09/06 03:36:07;;;;;;;7.93;5.50;;;15.00;99.90;;;;;;5041735;28;20120;-56
2023/09/06 03:38:33;;;;;;;4.80;3.92;;;15.00;99.90;;;;;;5029053;28;20037;-56
2023/09/06 03:41:02;;;;;;;5.70;4.43;;;15.00;99.90;;;;;;5043343;28;20112;-56
2023/09/06 03:43:32;;;;;;;9.45;5.82;;;15.10;99.90;;;;;;5009661;28;20056;-56
2023/09/06 03:46:04;;;;;;;5.03;4.33;;;15.20;99.90;;;;;;5010325;28;20018;-56
2023/09/06 03:48:30;;;;;;;6.13;5.10;;;15.20;99.90;;;;;;5029176;28;20026;-56
2023/09/06 03:50:57;;;;;;;6.43;5.35;;;15.20;99.90;;;;;;5029303;28;20025;-56
2023/09/06 03:53:25;;;;;;;8.38;6.13;;;15.20;99.90;;;;;;5028627;28;20026;-56
2023/09/06 03:55:51;;;;;;;9.65;5.50;;;15.20;99.90;;;;;;5029300;28;20022;-56
2023/09/06 03:58:17;;;;;;;8.93;5.13;;;15.20;99.90;;;;;;5029183;28;20040;-56
2023/09/06 04:00:44;;;;;;;8.40;4.82;;;15.20;99.90;;;;;;5028635;28;20025;-56
2023/09/06 04:03:13;;;;;;;7.53;5.03;;;15.10;99.90;;;;;;5026662;28;20136;-56
2023/09/06 04:05:40;;;;;;;7.72;5.43;;;15.20;99.90;;;;;;5022799;28;20026;-56
2023/09/06 04:08:07;;;;;;;6.55;5.57;;;15.20;99.90;;;;;;5009254;28;20036;-56
2023/09/06 04:10:36;;;;;;;6.03;4.78;;;15.20;99.90;;;;;;5009034;28;20511;-56
2023/09/06 04:13:03;;;;;;;5.25;4.45;;;15.10;99.90;;;;;;5024814;28;20087;-56
2023/09/06 04:15:29;;;;;;;6.95;4.70;;;15.00;99.90;;;;;;5028977;28;20053;-56
2023/09/06 04:17:59;;;;;;;6.28;4.50;;;15.00;99.90;;;;;;5021527;28;20476;-56
2023/09/06 04:20:35;;;;;;;5.90;4.15;;;15.00;99.90;;;;;;5024133;28;20698;-56
2023/09/06 04:23:01;;;;;;;5.55;4.22;;;14.90;99.90;;;;;;5024511;28;20034;-56
2023/09/06 04:25:28;;;;;;;7.47;4.93;;;14.90;99.90;;;;;;5028574;28;20111;-56
2023/09/06 04:27:54;;;;;;;6.65;4.63;;;14.80;99.90;;;;;;5044022;28;20034;-56
2023/09/06 04:30:24;;;;;;;5.43;4.88;;;14.90;99.90;;;;;;5027968;28;20026;-56
2023/09/06 04:32:51;;;;;;;12.27;5.53;;;14.90;99.90;;;;;;5029142;28;20021;-56
2023/09/06 04:35:17;;;;;;;8.32;5.63;;;14.90;99.90;;;;;;5015095;28;20034;-56
2023/09/06 04:37:43;;;;;;;7.93;4.95;;;14.90;99.90;;;;;;5011182;28;20129;-56
2023/09/06 04:40:13;;;;;;;7.93;5.35;;;14.80;99.90;;;;;;5024785;28;20026;-56
2023/09/06 04:42:40;;;;;;;6.03;5.13;;;14.70;99.90;;;;;;5032475;28;20057;-56
2023/09/06 04:45:10;;;;;;;10.07;5.35;;;14.60;99.90;;;;;;5031694;28;20064;-56
2023/09/06 04:47:39;;;;;;;5.47;4.20;;;14.60;99.90;;;;;;5032127;28;20026;-56
2023/09/06 04:50:05;;;;;;;5.95;4.13;;;14.60;99.90;;;;;;5016330;28;20443;-56
2023/09/06 04:52:36;;;;;;;7.57;3.90;;;14.50;99.90;;;;;;5012269;28;20037;-56
2023/09/06 04:55:01;;;;;;;6.03;3.47;;;14.50;99.90;;;;;;5011073;28;20525;-56
2023/09/06 04:57:27;;;;;;;4.40;4.00;;;14.40;99.90;;;;;;5012444;28;20065;-56
2023/09/06 04:59:53;;;;;;;5.80;4.22;;;14.50;99.90;;;;;;5010553;28;20030;-56
2023/09/06 05:02:19;;;;;;;7.35;4.25;;;14.40;99.90;;;;;;5012381;28;20041;-56
2023/09/06 05:04:44;;;;;;;4.72;3.80;;;14.40;99.90;;;;;;5010919;28;20026;-56
2023/09/06 05:07:10;;;;;;;5.93;4.65;;;14.40;99.90;;;;;;5020928;28;20044;-56
2023/09/06 05:09:36;;;;;;;6.25;4.22;;;14.40;99.90;;;;;;5031390;28;20041;-56
2023/09/06 05:12:03;;;;;;;6.90;4.00;;;14.50;99.90;;;;;;5031516;28;20127;-56
2023/09/06 05:14:29;;;;;;;5.07;4.50;;;14.50;99.90;;;;;;5031814;28;20171;-56
2023/09/06 05:16:55;;;;;;;5.75;4.40;;;14.50;99.90;;;;;;5027989;28;20061;-56
2023/09/06 05:19:25;;;;;;;7.32;4.53;;;14.60;99.90;;;;;;5011366;28;20069;-56
2023/09/06 05:21:51;;;;;;;5.93;4.72;;;14.60;99.90;;;;;;5011684;28;20090;-57
2023/09/06 05:24:16;;;;;;;6.82;4.55;;;14.70;99.90;;;;;;5030311;28;20476;-56
2023/09/06 05:26:42;;;;;;;5.30;4.18;;;14.80;99.90;;;;;;5045142;28;20549;-56
2023/09/06 05:29:07;;;;;;;5.78;4.95;;;14.80;99.90;;;;;;5030930;28;20057;-56
2023/09/06 05:31:33;;;;;;;5.35;4.30;;;14.90;99.90;;;;;;5026707;28;20508;-56
2023/09/06 05:33:58;;;;;;;6.65;4.75;;;15.00;99.90;;;;;;5027684;28;20112;-56
2023/09/06 05:36:24;;;;;;;8.52;6.00;;;14.90;99.90;;;;;;5030648;28;20033;-56
2023/09/06 05:38:49;;;;;;;7.03;5.57;;;15.00;99.90;;;;;;5027973;28;20100;-56
2023/09/06 05:41:15;;;;;;;5.18;4.68;;;15.00;99.90;;;;;;5031319;28;20025;-56
2023/09/06 05:43:41;;;;;;;5.97;4.82;;;15.10;99.90;;;;;;5018671;28;20477;-56
2023/09/06 05:46:06;;;;;;;8.88;4.82;;;15.10;99.90;;;;;;5020858;28;20022;-56
2023/09/06 05:48:32;;;;;;;5.63;4.60;;;15.10;99.90;;;;;;5010400;28;20025;-56
2023/09/06 05:50:58;;;;;;;7.53;4.50;;;15.10;99.90;;;;;;5011048;28;20444;-56
2023/09/06 05:53:26;;;;;;;6.40;4.63;;;15.20;99.90;;;;;;5012255;28;20101;-56
2023/09/06 05:55:51;;;;;;;11.45;5.80;;;15.20;99.90;;;;;;5030795;28;20021;-56
2023/09/06 05:58:17;;;;;;;5.93;4.72;;;15.30;99.90;;;;;;5030707;28;20036;-56
2023/09/06 06:00:43;;;;;;;6.43;4.78;;;15.30;99.90;;;;;;5029812;28;20037;-56
2023/09/06 06:03:10;;;;;;;5.03;4.40;;;15.30;99.90;;;;;;5030386;28;20565;-56
2023/09/06 06:05:35;;;;;;;4.35;3.95;;;15.30;99.90;;;;;;5045143;28;20497;-56
2023/09/06 06:08:01;;;;;;;5.88;4.63;;;15.40;99.90;;;;;;5030254;28;20030;-56
2023/09/06 06:10:34;;;;;;;8.00;4.28;;;15.40;99.90;;;;;;5029129;28;20074;-56
2023/09/06 06:12:59;;;;;;;6.70;4.68;;;15.50;99.90;;;;;;5030171;28;20031;-56
2023/09/06 06:15:25;;;;;;;5.22;4.18;;;15.50;99.90;;;;;;5030621;28;20108;-56
2023/09/06 06:17:51;;;;;;;4.75;4.10;;;15.60;99.90;;;;;;5029924;28;20025;-56
2023/09/06 06:20:17;;;;;;;8.50;5.47;;;15.60;99.90;;;;;;5030389;28;20025;-56
2023/09/06 06:22:43;;;;;;;5.97;5.18;;;15.70;99.90;;;;;;5029761;28;20367;-56
2023/09/06 06:25:12;;;;;;;5.47;4.60;;;15.80;99.90;;;;;;5030023;28;20036;-56
2023/09/06 06:27:38;;;;;;;7.68;5.60;;;15.80;99.90;;;;;;5044727;28;20506;-56
2023/09/06 06:30:07;;;;;;;6.53;5.75;;;15.90;99.90;;;;;;5029726;28;20025;-57
2023/09/06 06:32:34;;;;;;;6.93;5.55;;;16.00;99.90;;;;;;5029527;28;20033;-56
2023/09/06 06:35:04;;;;;;;6.80;5.00;;;16.00;99.90;;;;;;5030208;28;20017;-56
2023/09/06 06:37:30;;;;;;;5.22;4.50;;;16.10;99.90;;;;;;5017180;28;20521;-56
2023/09/06 06:39:58;;;;;;;6.97;4.82;;;16.20;99.90;;;;;;5009593;28;20034;-56
2023/09/06 06:42:24;;;;;;;7.18;5.15;;;16.20;99.90;;;;;;5012667;28;20033;-56
2023/09/06 06:44:51;;;;;;;6.00;4.80;;;16.20;99.90;;;;;;5029670;28;20104;-56
2023/09/06 06:47:17;;;;;;;6.13;5.20;;;16.30;99.90;;;;;;5037087;28;20492;-56
2023/09/06 06:49:43;;;;;;;5.70;5.10;;;16.40;99.90;;;;;;5027363;28;20029;-56
2023/09/06 06:52:08;;;;;;;8.40;5.00;;;16.40;99.90;;;;;;5027877;28;20639;-56
2023/09/06 06:54:34;;;;;;;6.63;4.93;;;16.50;99.90;;;;;;5029214;28;20036;-56
2023/09/06 06:57:00;;;;;;;6.70;5.15;;;16.60;99.90;;;;;;5042026;28;20475;-56
2023/09/06 06:59:27;;;;;;;7.45;5.53;;;16.60;99.90;;;;;;5042495;28;20021;-56
2023/09/06 07:01:52;;;;;;;8.05;5.72;;;16.70;99.90;;;;;;5043414;28;20041;-56
2023/09/06 07:04:18;;;;;;;6.15;4.90;;;16.80;99.90;;;;;;5029915;28;20394;-56
2023/09/06 07:06:43;;;;;;;7.82;5.07;;;16.90;99.90;;;;;;5028784;28;20021;-57
2023/09/06 07:09:10;;;;;;;6.28;5.13;;;17.00;99.90;;;;;;5015740;28;20650;-57
2023/09/06 07:11:36;;;;;;;9.35;4.93;;;17.00;99.90;;;;;;5010232;28;20025;-56
2023/09/06 07:14:02;;;;;;;7.38;4.72;;;17.20;99.90;;;;;;5008597;28;20025;-57
2023/09/06 07:16:28;;;;;;;5.60;4.28;;;17.30;99.90;;;;;;5011015;28;20027;-57
2023/09/06 07:18:53;;;;;;;7.88;5.10;;;17.40;99.90;;;;;;5010486;28;20041;-57
2023/09/06 07:21:19;;;;;;;5.18;4.57;;;17.50;99.90;;;;;;5009881;28;20030;-56
2023/09/06 07:23:45;;;;;;;7.63;3.92;;;17.80;99.90;;;;;;5011270;28;20573;-57
2023/09/06 07:26:11;;;;;;;9.02;3.85;;;18.30;99.90;;;;;;5010051;28;20387;-56
2023/09/06 07:28:43;;;;;;;6.88;4.13;;;18.90;99.90;;;;;;5011219;28;20033;-57
2023/09/06 07:31:09;;;;;;;5.78;3.55;;;19.60;99.90;;;;;;5026170;28;20387;-57
2023/09/06 07:33:35;;;;;;;4.15;3.53;;;20.40;99.90;;;;;;5015471;28;20033;-57
2023/09/06 07:36:01;;;;;;;4.00;3.30;;;20.70;99.90;;;;;;5025024;28;20021;-57
2023/09/06 07:38:27;;;;;;;7.70;4.10;;;20.90;99.90;;;;;;5029152;28;20037;-57
2023/09/06 07:41:05;;;;;;;5.15;3.45;;;21.00;99.90;;;;;;5029151;28;20561;-56
2023/09/06 07:43:30;;;;;;;5.63;3.33;;;20.80;99.90;;;;;;5016187;28;20036;-56
2023/09/06 07:45:57;;;;;;;6.57;3.50;;;20.80;99.90;;;;;;5008380;28;20022;-56
2023/09/06 07:48:24;;;;;;;6.70;3.70;;;20.80;99.90;;;;;;5009477;28;20455;-57
2023/09/06 07:50:50;;;;;;;6.30;3.20;;;21.20;99.90;;;;;;5009350;28;20531;-57
2023/09/06 07:53:16;;;;;;;5.40;3.35;;;21.90;99.90;;;;;;5012857;28;20034;-57
2023/09/06 07:55:43;;;;;;;7.70;3.65;;;22.70;99.90;;;;;;5014857;28;20076;-57
2023/09/06 07:58:09;;;;;;;6.25;2.85;;;23.50;99.90;;;;;;5009612;28;20030;-57
2023/09/06 08:00:36;;;;;;;7.40;3.28;;;24.00;99.90;;;;;;5010435;28;20089;-57
2023/09/06 08:03:02;;;;;;;7.20;3.88;;;24.60;99.90;;;;;;5009035;28;20235;-57
2023/09/06 08:05:28;;;;;;;4.45;3.00;;;25.20;99.90;;;;;;5017134;28;20026;-57
2023/09/06 08:07:53;;;;;;;9.70;3.55;;;25.70;99.90;;;;;;5028408;28;20033;-57
2023/09/06 08:10:19;;;;;;;5.32;3.20;;;26.10;99.30;;;;;;5026174;28;20072;-57
2023/09/06 08:12:44;;;;;;;7.53;2.97;;;26.30;98.30;;;;;;5030753;28;20051;-57
2023/09/06 08:15:10;;;;;;;3.38;2.45;;;26.20;98.30;;;;;;5027297;28;20057;-57
2023/09/06 08:17:35;;;;;;;10.07;2.90;;;26.60;98.40;;;;;;5043280;28;20136;-57
2023/09/06 08:20:02;;;;;;;6.93;2.67;;;27.30;97.40;;;;;;5022796;28;20032;-58
2023/09/06 08:22:27;;;;;;;5.18;2.80;;;28.60;95.90;;;;;;5023617;28;20116;-57
2023/09/06 08:24:53;;;;;;;4.97;2.60;;;30.30;94.00;;;;;;5013288;28;20113;-58
2023/09/06 08:27:18;;;;;;;2.00;1.75;;;31.80;91.00;;;;;;5021766;28;20128;-58
2023/09/06 08:29:44;;;;;;;2.53;2.10;;;33.40;86.50;;;;;;5032293;28;20025;-58
2023/09/06 08:32:09;;;;;;;4.10;2.20;;;34.50;81.10;;;;;;5032715;28;20032;-58
2023/09/06 08:34:35;;;;;;;6.07;2.75;;;35.60;78.40;;;;;;5032749;28;20030;-58
2023/09/06 08:37:00;;;;;;;6.05;2.60;;;36.70;73.60;;;;;;5031508;28;20460;-59
2023/09/06 08:39:26;;;;;;;4.80;2.50;;;37.20;71.20;;;;;;5023299;28;20318;-58
2023/09/06 08:41:53;;;;;;;3.83;2.08;;;37.80;66.70;;;;;;5027149;28;20276;-58
2023/09/06 08:44:20;;;;;;;5.88;2.20;;;38.00;67.40;;;;;;5030303;28;20505;-58
2023/09/06 08:46:47;;;;;;;4.63;2.35;;;38.60;65.30;;;;;;5032707;28;20363;-59
2023/09/06 08:49:15;;;;;;;4.78;2.30;;;38.70;65.00;;;;;;5031725;28;20030;-58
2023/09/06 08:51:43;;;;;;;3.22;2.00;;;39.10;62.00;;;;;;5029263;28;20040;-58
2023/09/06 08:54:09;;;;;;;2.25;1.90;;;39.60;60.10;;;;;;5024387;28;20554;-59
2023/09/06 08:56:35;;;;;;;4.85;2.45;;;40.10;59.10;;;;;;5020560;28;20101;-58
2023/09/06 08:59:00;;;;;;;5.28;2.03;;;40.20;59.30;;;;;;5021744;28;20049;-59
2023/09/06 09:01:28;;;;;;;3.30;2.15;;;40.40;59.00;;;;;;5026504;28;20412;-59
2023/09/06 09:03:54;;;;;;;4.20;2.10;;;40.20;57.00;;;;;;5027451;28;20030;-59
2023/09/06 09:06:20;;;;;;;10.57;2.38;;;40.40;54.70;;;;;;5028221;28;20283;-58
2023/09/06 09:08:46;;;;;;;3.38;2.05;;;41.10;55.30;;;;;;5025680;28;20487;-58
2023/09/06 09:11:18;;;;;;;5.88;2.53;;;41.30;54.50;;;;;;5013002;28;20069;-58
2023/09/06 09:13:45;;;;;;;3.13;2.00;;;41.00;54.70;;;;;;5023079;28;20032;-58
2023/09/06 09:16:13;;;;;;;5.55;1.98;;;41.40;54.30;;;;;;5023256;28;20022;-58
2023/09/06 09:18:40;;;;;;;4.43;2.25;;;41.50;53.50;;;;;;5028383;28;20041;-58
2023/09/06 09:21:11;;;;;;;4.00;2.10;;;42.20;52.90;;;;;;5018782;28;20637;-59
2023/09/06 09:23:44;;;;;;;3.42;2.05;;;42.10;52.90;;;;;;5022360;28;20054;-58
2023/09/06 09:26:09;;;;;;;3.72;2.20;;;42.20;52.90;;;;;;5020751;28;20041;-58
2023/09/06 09:28:35;;;;;;;4.05;2.25;;;41.40;54.90;;;;;;5017627;28;20033;-58
2023/09/06 09:31:02;;;;;;;4.32;2.05;;;41.60;53.10;;;;;;5021838;28;20056;-58
2023/09/06 09:33:28;;;;;;;3.10;2.00;;;41.80;54.10;;;;;;5023351;28;20025;-59
2023/09/06 09:35:55;;;;;;;2.75;1.95;;;42.30;50.80;;;;;;5018952;28;20018;-58
2023/09/06 09:38:21;;;;;;;4.03;1.85;;;42.40;52.00;;;;;;5032542;28;20064;-58
2023/09/06 09:41:02;;;;;;;7.78;2.42;;;42.00;52.60;;;;;;5018432;28;20447;-59
2023/09/06 09:43:28;;;;;;;2.90;1.85;;;42.10;51.60;;;;;;5016337;28;20029;-58
2023/09/06 09:45:54;;;;;;;5.20;1.75;;;42.50;51.30;;;;;;5031329;28;20017;-58
2023/09/06 09:48:24;;;;;;;3.20;1.80;;;42.90;50.60;;;;;;5031034;28;20026;-58
2023/09/06 09:50:53;;;;;;;5.68;1.90;;;42.80;49.80;;;;;;5030947;28;20028;-58
2023/09/06 09:53:24;;;;;;;6.00;2.47;;;42.90;50.70;;;;;;5031013;28;20105;-58
2023/09/06 09:55:54;;;;;;;4.45;2.22;;;43.00;50.40;;;;;;5031499;28;20057;-58
2023/09/06 09:58:20;;;;;;;2.33;1.92;;;43.10;49.90;;;;;;5031501;28;20044;-58
2023/09/06 10:00:52;;;;;;;2.20;1.95;;;43.10;50.70;;;;;;5030938;28;20044;-58
2023/09/06 10:03:18;;;;;;;4.50;1.85;;;44.00;49.40;;;;;;5031148;28;20026;-58
2023/09/06 10:05:46;;;;;;;6.85;2.40;;;44.10;47.50;;;;;;5030964;28;20060;-58
2023/09/06 10:08:13;;;;;;;2.40;1.85;;;43.00;50.30;;;;;;5045989;28;20204;-58
2023/09/06 10:10:40;;;;;;;4.82;2.15;;;43.10;50.20;;;;;;5028446;28;20108;-58
2023/09/06 10:13:09;;;;;;;3.33;2.00;;;42.60;51.30;;;;;;5029497;28;20040;-58
2023/09/06 10:15:36;;;;;;;6.05;2.20;;;42.70;51.40;;;;;;5030467;28;20029;-58
2023/09/06 10:18:03;;;;;;;5.63;1.90;;;43.00;49.60;;;;;;5045620;28;20129;-58
2023/09/06 10:20:32;;;;;;;7.15;1.80;;;43.20;49.90;;;;;;5029831;28;20025;-58
2023/09/06 10:22:59;;;;;;;4.72;1.60;;;43.00;50.10;;;;;;5030747;28;20030;-58
2023/09/06 10:25:28;;;;;;;3.22;2.13;;;42.80;45.70;;;;;;5030320;28;20041;-58
2023/09/06 10:27:55;;;;;;;2.60;1.90;;;43.00;47.10;;;;;;5030334;28;20021;-58
2023/09/06 10:30:43;;;;;;;1.98;1.80;;;43.70;45.60;;;;;;5028879;28;20104;-58
2023/09/06 10:33:31;;;;;;;;;;;43.00;48.10;;;;;;5030157;28;20063;-58
2023/09/06 10:36:04;;;;;;;3.40;1.80;;;43.30;48.60;;;;;;5020264;28;19992;-58
2023/09/06 10:38:30;;;;;;;2.58;1.70;;;42.90;48.20;;;;;;5030145;28;20029;-58
2023/09/06 10:40:56;;;;;;;3.67;2.80;;;42.60;46.70;;;;;;5029825;28;20032;-58
2023/09/06 10:43:47;;;;;;;4.03;1.90;;;42.20;49.60;;;;;;5029827;28;20034;-58
2023/09/06 10:46:13;;;;;;;2.35;1.67;;;42.40;50.50;;;;;;5024232;28;20037;-58
2023/09/06 10:48:39;;;;;;;5.65;2.10;;;42.30;50.60;;;;;;5041937;28;20034;-58
2023/09/06 10:51:11;;;;;;;4.25;1.98;;;42.10;47.60;;;;;;5023969;28;20538;-58
2023/09/06 10:53:37;;;;;;;3.70;1.80;;;42.60;48.50;;;;;;5022817;28;20079;-58
2023/09/06 10:56:03;;;;;;;3.38;1.80;;;42.50;47.50;;;;;;5029808;28;20029;-58
2023/09/06 10:58:32;;;;;;;1.98;1.73;;;42.80;47.50;;;;;;5029891;28;20641;-58
2023/09/06 11:01:17;;;;;;;1.80;1.52;;;42.80;46.10;;;;;;5029818;28;20107;-58
2023/09/06 11:03:48;;;;;;;1.92;1.60;;;43.40;45.70;;;;;;5029828;28;20021;-59
2023/09/06 11:06:14;;;;;;;3.65;1.77;;;42.90;45.60;;;;;;5029812;28;20094;-58
2023/09/06 11:08:40;;;;;;;2.30;1.83;;;43.10;45.90;;;;;;5029861;28;20112;-58
2023/09/06 11:11:09;;;;;;;3.60;1.50;;;43.30;45.70;;;;;;5029550;28;20406;-58
2023/09/06 11:13:36;;;;;;;3.03;1.80;;;43.50;46.80;;;;;;5010273;28;20045;-59
2023/09/06 11:16:03;;;;;;;1.83;1.48;;;43.20;45.10;;;;;;5010297;28;20014;-58
2023/09/06 11:18:32;;;;;;;2.25;1.50;;;44.00;44.50;;;;;;5028751;28;20036;-58
2023/09/06 11:20:59;;;;;;;2.78;1.30;;;43.90;47.10;;;;;;5009940;28;20030;-58
2023/09/06 11:23:26;;;;;;;2.60;1.67;;;44.20;44.00;;;;;;5009089;28;20018;-58
2023/09/06 11:25:58;;;;;;;2.28;1.63;;;43.30;43.50;;;;;;5014915;28;20026;-58
2023/09/06 11:28:28;;;;;;;2.03;1.55;;;43.30;43.50;;;;;;5017923;28;20387;-58
2023/09/06 11:30:54;;;;;;;4.50;2.00;;;43.30;44.60;;;;;;5015991;28;20010;-58
2023/09/06 11:33:26;;;;;;;3.25;1.92;;;43.80;46.30;;;;;;5017576;28;20375;-58
2023/09/06 11:35:56;;;;;;;3.80;1.90;;;43.60;46.10;;;;;;5019595;28;20045;-58
2023/09/06 11:38:28;;;;;;;4.22;2.15;;;43.20;46.50;;;;;;5017358;28;20390;-58
2023/09/06 11:40:56;;;;;;;5.88;1.85;;;42.60;45.50;;;;;;5018007;28;20100;-58
2023/09/06 11:43:26;;;;;;;4.67;1.50;;;43.50;47.60;;;;;;5022771;28;20027;-58
2023/09/06 11:45:54;;;;;;;1.45;1.17;;;44.00;43.20;;;;;;5021223;28;20017;-58
2023/09/06 11:48:27;;;;;;;2.75;1.40;;;44.00;44.30;;;;;;5022689;28;20057;-58
2023/09/06 11:51:01;;;;;;;1.80;1.50;;;44.10;45.00;;;;;;5021673;28;20080;-58
2023/09/06 11:53:27;;;;;;;5.63;1.63;;;44.50;43.30;;;;;;5022126;28;20018;-58
2023/09/06 11:55:59;;;;;;;2.40;1.50;;;44.40;44.00;;;;;;5021330;28;20064;-59
2023/09/06 11:58:27;;;;;;;4.18;1.67;;;44.10;44.30;;;;;;5019887;28;20506;-58
2023/09/06 12:00:55;;;;;;;2.78;1.80;;;44.00;46.00;;;;;;5026651;28;20025;-58
2023/09/06 12:03:28;;;;;;;4.90;1.80;;;43.80;45.70;;;;;;5026529;28;20030;-58
2023/09/06 12:05:56;;;;;;;5.50;2.00;;;43.60;45.60;;;;;;5031587;28;20100;-58
2023/09/06 12:08:22;;;;;;;1.60;1.40;;;42.60;46.70;;;;;;5047065;28;20021;-58
2023/09/06 12:10:53;;;;;;;3.88;1.88;;;42.30;47.10;;;;;;5032063;28;20479;-58
2023/09/06 12:13:34;;;;;;;2.42;1.58;;;41.40;46.50;;;;;;5022334;28;20029;-58
2023/09/06 12:16:00;;;;;;;7.72;1.80;;;40.90;47.40;;;;;;5022502;28;20137;-58
2023/09/06 12:18:30;;;;;;;5.32;1.85;;;40.70;47.80;;;;;;5023608;28;20449;-58
2023/09/06 12:20:56;;;;;;;3.40;1.83;;;40.30;47.40;;;;;;5022849;28;20033;-58
2023/09/06 12:23:22;;;;;;;2.03;1.60;;;40.10;47.70;;;;;;5031450;28;20380;-58
2023/09/06 12:25:48;;;;;;;2.08;1.77;;;39.60;48.80;;;;;;5041487;28;20064;-58
2023/09/06 12:28:13;;;;;;;2.00;1.80;;;38.90;48.50;;;;;;5034805;28;20068;-58
2023/09/06 12:30:39;;;;;;;3.72;2.13;;;38.60;49.90;;;;;;5020878;28;20049;-57
2023/09/06 12:33:05;;;;;;;4.53;1.88;;;37.80;50.30;;;;;;5023567;28;20033;-58
2023/09/06 12:35:37;;;;;;;3.40;2.00;;;37.70;51.30;;;;;;5022165;28;20032;-57
2023/09/06 12:38:03;;;;;;;2.53;2.10;;;37.60;51.80;;;;;;5023364;28;20262;-57
2023/09/06 12:40:31;;;;;;;3.67;2.08;;;37.30;51.00;;;;;;5019331;28;20022;-57
2023/09/06 12:42:57;;;;;;;4.45;2.40;;;36.70;51.30;;;;;;5037212;28;20057;-58
2023/09/06 12:45:33;;;;;;;3.92;2.22;;;36.50;52.30;;;;;;5026522;28;20037;-57
2023/09/06 12:48:00;;;;;;;2.67;2.10;;;36.30;54.00;;;;;;5021195;28;20021;-57
2023/09/06 12:50:26;;;;;;;5.20;2.28;;;36.00;52.30;;;;;;5019884;28;20451;-57
2023/09/06 12:52:53;;;;;;;4.95;1.83;;;36.00;53.40;;;;;;5018909;28;20088;-57
2023/09/06 12:55:19;;;;;;;2.75;2.13;;;35.80;52.20;;;;;;5026052;28;20108;-57